sensor_id;sensor_type;location;lat;lon;timestamp;pressure;altitude;pressure_sealevel;temperature;humidity
11856;BME280;5987;53.140;8.904;2023-09-19T00:00:28;100440.06;;;16.17;100.00
11856;BME280;5987;53.140;8.904;2023-09-19T00:03:31;100432.56;;;16.24;100.00
11856;BME280;5987;53.140;8.904;2023-09-19T00:06:36;100437.25;;;16.20;100.00
11856;BME280;5987;53.140;8.904;2023-09-19T00:09:39;100443.25;;;16.22;100.00
11856;BME280;5987;53.140;8.904;2023-09-19T00:12:45;100451.41;;;16.19;100.00
11856;BME280;5987;53.140;8.904;2023-09-19T00:15:49;100458.59;;;16.17;100.00
11856;BME280;5987;53.140;8.904;2023-09-19T00:18:53;100450.03;;;16.14;100.00
11856;BME280;5987;53.140;8.904;2023-09-19T00:21:57;100455.00;;;16.18;100.00
11856;BME280;5987;53.140;8.904;2023-09-19T00:25:01;100462.22;;;16.16;100.00
11856;BME280;5987;53.140;8.904;2023-09-19T00:28:06;100464.66;;;16.19;100.00
11856;BME280;5987;53.140;8.904;2023-09-19T00:31:10;100464.47;;;16.22;100.00
11856;BME280;5987;53.140;8.904;2023-09-19T00:34:14;100466.16;;;16.23;100.00
11856;BME280;5987;53.140;8.904;2023-09-19T00:37:18;100467.66;;;16.27;100.00
11856;BME280;5987;53.140;8.904;2023-09-19T00:40:22;100471.47;;;16.23;100.00
11856;BME280;5987;53.140;8.904;2023-09-19T00:43:29;100479.53;;;16.35;100.00
11856;BME280;5987;53.140;8.904;2023-09-19T00:46:38;100486.56;;;16.36;100.00
11856;BME280;5987;53.140;8.904;2023-09-19T00:49:43;100487.13;;;16.14;100.00
11856;BME280;5987;53.140;8.904;2023-09-19T00:52:48;100491.22;;;16.05;100.00
11856;BME280;5987;53.140;8.904;2023-09-19T00:55:53;100487.25;;;15.98;100.00
11856;BME280;5987;53.140;8.904;2023-09-19T00:59:00;100495.75;;;16.03;100.00
11856;BME280;5987;53.140;8.904;2023-09-19T01:02:04;100481.78;;;16.01;100.00
11856;BME280;5987;53.140;8.904;2023-09-19T01:05:08;100497.09;;;15.95;100.00
11856;BME280;5987;53.140;8.904;2023-09-19T01:08:12;100491.81;;;15.95;100.00
11856;BME280;5987;53.140;8.904;2023-09-19T01:11:28;100497.22;;;15.94;100.00
11856;BME280;5987;53.140;8.904;2023-09-19T01:14:48;100512.84;;;15.84;100.00
11856;BME280;5987;53.140;8.904;2023-09-19T01:18:11;100521.13;;;15.92;100.00
11856;BME280;5987;53.140;8.904;2023-09-19T01:21:28;100512.06;;;15.97;100.00
11856;BME280;5987;53.140;8.904;2023-09-19T01:25:08;100508.16;;;16.02;100.00
11856;BME280;5987;53.140;8.904;2023-09-19T01:28:31;100511.38;;;15.93;100.00
11856;BME280;5987;53.140;8.904;2023-09-19T01:31:43;100526.63;;;15.89;100.00
11856;BME280;5987;53.140;8.904;2023-09-19T01:34:50;100519.53;;;15.75;100.00
11856;BME280;5987;53.140;8.904;2023-09-19T01:37:55;100532.31;;;15.83;100.00
11856;BME280;5987;53.140;8.904;2023-09-19T01:41:10;100536.66;;;15.70;100.00
11856;BME280;5987;53.140;8.904;2023-09-19T01:44:25;100553.09;;;15.60;100.00
11856;BME280;5987;53.140;8.904;2023-09-19T01:47:38;100541.78;;;15.44;100.00
11856;BME280;5987;53.140;8.904;2023-09-19T01:50:59;100550.69;;;15.43;100.00
11856;BME280;5987;53.140;8.904;2023-09-19T01:54:09;100549.91;;;15.12;100.00
11856;BME280;5987;53.140;8.904;2023-09-19T01:57:22;100553.47;;;14.97;100.00
11856;BME280;5987;53.140;8.904;2023-09-19T02:00:35;100549.22;;;14.94;100.00
11856;BME280;5987;53.140;8.904;2023-09-19T02:03:43;100556.66;;;14.87;100.00
11856;BME280;5987;53.140;8.904;2023-09-19T02:06:47;100551.47;;;14.86;100.00
11856;BME280;5987;53.140;8.904;2023-09-19T02:09:51;100555.31;;;14.80;100.00
11856;BME280;5987;53.140;8.904;2023-09-19T02:12:54;100558.91;;;14.79;100.00
11856;BME280;5987;53.140;8.904;2023-09-19T02:16:00;100560.22;;;14.86;100.00
11856;BME280;5987;53.140;8.904;2023-09-19T02:19:06;100557.13;;;14.80;100.00
11856;BME280;5987;53.140;8.904;2023-09-19T02:22:11;100557.56;;;14.72;100.00
11856;BME280;5987;53.140;8.904;2023-09-19T02:25:14;100554.91;;;14.72;100.00
11856;BME280;5987;53.140;8.904;2023-09-19T02:28:18;100557.16;;;14.64;100.00
11856;BME280;5987;53.140;8.904;2023-09-19T02:31:22;100564.47;;;14.58;100.00
11856;BME280;5987;53.140;8.904;2023-09-19T02:34:27;100556.22;;;14.65;100.00
11856;BME280;5987;53.140;8.904;2023-09-19T02:37:31;100556.66;;;14.57;100.00
11856;BME280;5987;53.140;8.904;2023-09-19T02:40:37;100565.19;;;14.46;100.00
11856;BME280;5987;53.140;8.904;2023-09-19T02:43:41;100569.97;;;14.39;100.00
11856;BME280;5987;53.140;8.904;2023-09-19T02:46:46;100564.94;;;14.35;100.00
11856;BME280;5987;53.140;8.904;2023-09-19T02:49:52;100569.78;;;14.43;100.00
11856;BME280;5987;53.140;8.904;2023-09-19T02:52:56;100580.97;;;14.32;100.00
11856;BME280;5987;53.140;8.904;2023-09-19T02:56:00;100573.91;;;14.32;100.00
11856;BME280;5987;53.140;8.904;2023-09-19T02:59:04;100575.09;;;14.27;100.00
11856;BME280;5987;53.140;8.904;2023-09-19T03:02:08;100582.00;;;14.13;100.00
11856;BME280;5987;53.140;8.904;2023-09-19T03:05:14;100580.56;;;14.23;100.00
11856;BME280;5987;53.140;8.904;2023-09-19T03:08:18;100584.31;;;14.19;100.00
11856;BME280;5987;53.140;8.904;2023-09-19T03:11:21;100588.06;;;14.15;100.00
11856;BME280;5987;53.140;8.904;2023-09-19T03:14:25;100591.63;;;13.98;100.00
11856;BME280;5987;53.140;8.904;2023-09-19T03:17:32;100592.06;;;14.06;100.00
11856;BME280;5987;53.140;8.904;2023-09-19T03:20:37;100601.50;;;13.95;100.00
11856;BME280;5987;53.140;8.904;2023-09-19T03:23:41;100613.06;;;13.92;100.00
11856;BME280;5987;53.140;8.904;2023-09-19T03:26:47;100618.50;;;13.89;100.00
11856;BME280;5987;53.140;8.904;2023-09-19T03:29:50;100617.16;;;13.82;100.00
11856;BME280;5987;53.140;8.904;2023-09-19T03:32:54;100624.88;;;13.85;100.00
11856;BME280;5987;53.140;8.904;2023-09-19T03:36:01;100629.16;;;13.87;100.00
11856;BME280;5987;53.140;8.904;2023-09-19T03:39:07;100639.28;;;13.79;100.00
11856;BME280;5987;53.140;8.904;2023-09-19T03:42:10;100639.53;;;13.75;100.00
11856;BME280;5987;53.140;8.904;2023-09-19T03:45:14;100628.13;;;13.74;100.00
11856;BME280;5987;53.140;8.904;2023-09-19T03:48:18;100640.13;;;13.80;100.00
11856;BME280;5987;53.140;8.904;2023-09-19T03:51:25;100639.78;;;13.70;100.00
11856;BME280;5987;53.140;8.904;2023-09-19T03:54:28;100644.88;;;13.73;100.00
11856;BME280;5987;53.140;8.904;2023-09-19T03:57:32;100652.50;;;13.62;100.00
11856;BME280;5987;53.140;8.904;2023-09-19T04:00:38;100645.53;;;13.61;100.00
11856;BME280;5987;53.140;8.904;2023-09-19T04:03:42;100651.00;;;13.73;100.00
11856;BME280;5987;53.140;8.904;2023-09-19T04:06:54;100657.53;;;13.66;100.00
11856;BME280;5987;53.140;8.904;2023-09-19T04:09:58;100651.94;;;13.72;100.00
11856;BME280;5987;53.140;8.904;2023-09-19T04:13:02;100658.47;;;13.65;100.00
11856;BME280;5987;53.140;8.904;2023-09-19T04:16:07;100658.34;;;13.68;100.00
11856;BME280;5987;53.140;8.904;2023-09-19T04:19:11;100662.06;;;13.64;100.00
11856;BME280;5987;53.140;8.904;2023-09-19T04:22:18;100659.56;;;13.61;100.00
11856;BME280;5987;53.140;8.904;2023-09-19T04:25:22;100651.56;;;13.63;100.00
11856;BME280;5987;53.140;8.904;2023-09-19T04:28:26;100649.09;;;13.60;100.00
11856;BME280;5987;53.140;8.904;2023-09-19T04:31:30;100646.38;;;13.61;100.00
11856;BME280;5987;53.140;8.904;2023-09-19T04:34:34;100650.34;;;13.70;100.00
11856;BME280;5987;53.140;8.904;2023-09-19T04:37:40;100655.16;;;13.62;100.00
11856;BME280;5987;53.140;8.904;2023-09-19T04:40:44;100654.06;;;13.66;100.00
11856;BME280;5987;53.140;8.904;2023-09-19T04:43:48;100650.69;;;13.46;100.00
11856;BME280;5987;53.140;8.904;2023-09-19T04:46:54;100647.41;;;13.59;100.00
11856;BME280;5987;53.140;8.904;2023-09-19T04:49:58;100650.03;;;13.59;100.00
11856;BME280;5987;53.140;8.904;2023-09-19T04:53:03;100672.16;;;13.38;100.00
11856;BME280;5987;53.140;8.904;2023-09-19T04:56:07;100658.03;;;13.40;100.00
11856;BME280;5987;53.140;8.904;2023-09-19T04:59:11;100671.41;;;13.36;100.00
11856;BME280;5987;53.140;8.904;2023-09-19T05:02:14;100685.56;;;13.34;100.00
11856;BME280;5987;53.140;8.904;2023-09-19T05:05:18;100680.16;;;13.37;100.00
11856;BME280;5987;53.140;8.904;2023-09-19T05:08:24;100688.94;;;13.37;100.00
11856;BME280;5987;53.140;8.904;2023-09-19T05:11:28;100681.06;;;13.36;100.00
11856;BME280;5987;53.140;8.904;2023-09-19T05:14:32;100697.69;;;13.38;100.00
11856;BME280;5987;53.140;8.904;2023-09-19T05:17:37;100700.88;;;13.45;100.00
11856;BME280;5987;53.140;8.904;2023-09-19T05:20:41;100698.38;;;13.42;100.00
11856;BME280;5987;53.140;8.904;2023-09-19T05:23:47;100693.47;;;13.51;100.00
11856;BME280;5987;53.140;8.904;2023-09-19T05:26:52;100693.63;;;13.48;100.00
11856;BME280;5987;53.140;8.904;2023-09-19T05:29:57;100695.31;;;13.67;100.00
11856;BME280;5987;53.140;8.904;2023-09-19T05:33:01;100678.41;;;13.71;100.00
11856;BME280;5987;53.140;8.904;2023-09-19T05:36:07;100684.22;;;13.78;100.00
11856;BME280;5987;53.140;8.904;2023-09-19T05:39:13;100690.94;;;13.83;100.00
11856;BME280;5987;53.140;8.904;2023-09-19T05:42:17;100705.69;;;13.87;100.00
11856;BME280;5987;53.140;8.904;2023-09-19T05:45:21;100693.97;;;13.93;100.00
11856;BME280;5987;53.140;8.904;2023-09-19T05:48:25;100688.13;;;14.04;100.00
11856;BME280;5987;53.140;8.904;2023-09-19T05:51:29;100692.78;;;14.15;100.00
11856;BME280;5987;53.140;8.904;2023-09-19T05:54:36;100698.16;;;14.13;100.00
11856;BME280;5987;53.140;8.904;2023-09-19T05:57:39;100690.78;;;14.20;100.00
11856;BME280;5987;53.140;8.904;2023-09-19T06:00:45;100694.53;;;14.32;100.00
11856;BME280;5987;53.140;8.904;2023-09-19T06:03:50;100704.06;;;14.34;100.00
11856;BME280;5987;53.140;8.904;2023-09-19T06:06:55;100701.50;;;14.33;100.00
11856;BME280;5987;53.140;8.904;2023-09-19T06:10:00;100711.22;;;14.48;100.00
11856;BME280;5987;53.140;8.904;2023-09-19T06:13:04;100714.47;;;14.53;100.00
11856;BME280;5987;53.140;8.904;2023-09-19T06:16:08;100722.22;;;14.56;100.00
11856;BME280;5987;53.140;8.904;2023-09-19T06:19:12;100721.63;;;14.51;100.00
11856;BME280;5987;53.140;8.904;2023-09-19T06:22:16;100714.47;;;14.53;100.00
11856;BME280;5987;53.140;8.904;2023-09-19T06:25:23;100711.06;;;14.51;100.00
11856;BME280;5987;53.140;8.904;2023-09-19T06:28:26;100712.84;;;14.35;100.00
11856;BME280;5987;53.140;8.904;2023-09-19T06:31:30;100702.50;;;14.64;100.00
11856;BME280;5987;53.140;8.904;2023-09-19T06:34:34;100710.91;;;14.54;100.00
11856;BME280;5987;53.140;8.904;2023-09-19T06:37:40;100709.72;;;14.60;100.00
11856;BME280;5987;53.140;8.904;2023-09-19T06:40:45;100705.13;;;14.64;100.00
11856;BME280;5987;53.140;8.904;2023-09-19T06:43:49;100715.69;;;14.64;100.00
11856;BME280;5987;53.140;8.904;2023-09-19T06:46:55;100710.06;;;14.86;100.00
11856;BME280;5987;53.140;8.904;2023-09-19T06:49:59;100715.03;;;14.76;100.00
11856;BME280;5987;53.140;8.904;2023-09-19T06:53:04;100717.06;;;14.71;100.00
11856;BME280;5987;53.140;8.904;2023-09-19T06:56:09;100709.72;;;14.76;100.00
11856;BME280;5987;53.140;8.904;2023-09-19T06:59:13;100724.56;;;14.79;100.00
11856;BME280;5987;53.140;8.904;2023-09-19T07:02:18;100724.56;;;14.79;100.00
11856;BME280;5987;53.140;8.904;2023-09-19T07:05:24;100730.19;;;14.72;100.00
11856;BME280;5987;53.140;8.904;2023-09-19T07:08:29;100736.00;;;14.95;100.00
11856;BME280;5987;53.140;8.904;2023-09-19T07:11:34;100736.13;;;14.92;100.00
11856;BME280;5987;53.140;8.904;2023-09-19T07:14:39;100749.97;;;14.97;100.00
11856;BME280;5987;53.140;8.904;2023-09-19T07:17:43;100737.25;;;15.04;100.00
11856;BME280;5987;53.140;8.904;2023-09-19T07:20:48;100750.44;;;15.20;100.00
11856;BME280;5987;53.140;8.904;2023-09-19T07:23:52;100743.06;;;15.55;100.00
11856;BME280;5987;53.140;8.904;2023-09-19T07:26:57;100747.56;;;15.69;100.00
11856;BME280;5987;53.140;8.904;2023-09-19T07:30:01;100750.69;;;15.46;100.00
11856;BME280;5987;53.140;8.904;2023-09-19T07:33:05;100751.38;;;15.49;100.00
11856;BME280;5987;53.140;8.904;2023-09-19T07:36:12;100753.59;;;15.57;100.00
11856;BME280;5987;53.140;8.904;2023-09-19T07:39:16;100745.81;;;15.54;100.00
11856;BME280;5987;53.140;8.904;2023-09-19T07:42:26;100755.25;;;15.74;100.00
11856;BME280;5987;53.140;8.904;2023-09-19T07:45:30;100748.00;;;15.92;100.00
11856;BME280;5987;53.140;8.904;2023-09-19T07:48:34;100743.47;;;16.08;100.00
11856;BME280;5987;53.140;8.904;2023-09-19T07:51:38;100750.63;;;15.92;100.00
11856;BME280;5987;53.140;8.904;2023-09-19T07:54:43;100752.53;;;16.04;100.00
11856;BME280;5987;53.140;8.904;2023-09-19T07:57:49;100751.69;;;16.04;100.00
11856;BME280;5987;53.140;8.904;2023-09-19T08:00:52;100738.66;;;16.15;100.00
11856;BME280;5987;53.140;8.904;2023-09-19T08:03:56;100741.09;;;16.33;100.00
11856;BME280;5987;53.140;8.904;2023-09-19T08:07:01;100749.63;;;16.38;100.00
11856;BME280;5987;53.140;8.904;2023-09-19T08:10:08;100751.69;;;16.47;100.00
11856;BME280;5987;53.140;8.904;2023-09-19T08:13:17;100758.41;;;16.53;100.00
11856;BME280;5987;53.140;8.904;2023-09-19T08:16:20;100746.06;;;16.66;100.00
11856;BME280;5987;53.140;8.904;2023-09-19T08:19:27;100751.78;;;16.87;100.00
11856;BME280;5987;53.140;8.904;2023-09-19T08:22:33;100749.72;;;17.20;100.00
11856;BME280;5987;53.140;8.904;2023-09-19T08:25:37;100752.38;;;16.92;100.00
11856;BME280;5987;53.140;8.904;2023-09-19T08:28:43;100752.66;;;17.15;100.00
11856;BME280;5987;53.140;8.904;2023-09-19T08:31:47;100741.56;;;16.95;100.00
11856;BME280;5987;53.140;8.904;2023-09-19T08:34:53;100748.66;;;16.80;100.00
11856;BME280;5987;53.140;8.904;2023-09-19T08:37:57;100753.63;;;16.72;100.00
11856;BME280;5987;53.140;8.904;2023-09-19T08:41:07;100759.81;;;16.44;100.00
11856;BME280;5987;53.140;8.904;2023-09-19T08:44:12;100757.88;;;16.89;100.00
11856;BME280;5987;53.140;8.904;2023-09-19T08:47:27;100760.25;;;16.65;100.00
11856;BME280;5987;53.140;8.904;2023-09-19T08:50:43;100744.25;;;17.08;100.00
11856;BME280;5987;53.140;8.904;2023-09-19T08:53:56;100752.06;;;16.97;100.00
11856;BME280;5987;53.140;8.904;2023-09-19T08:57:07;100749.81;;;17.18;100.00
11856;BME280;5987;53.140;8.904;2023-09-19T09:00:16;100749.44;;;17.24;100.00
11856;BME280;5987;53.140;8.904;2023-09-19T09:03:23;100754.78;;;17.50;100.00
11856;BME280;5987;53.140;8.904;2023-09-19T09:06:29;100758.22;;;17.78;100.00
11856;BME280;5987;53.140;8.904;2023-09-19T09:09:35;100753.25;;;17.33;100.00
11856;BME280;5987;53.140;8.904;2023-09-19T09:12:39;100771.50;;;17.25;100.00
11856;BME280;5987;53.140;8.904;2023-09-19T09:15:45;100773.25;;;17.52;100.00
11856;BME280;5987;53.140;8.904;2023-09-19T09:18:49;100770.50;;;17.53;100.00
11856;BME280;5987;53.140;8.904;2023-09-19T09:22:07;100771.31;;;17.41;100.00
11856;BME280;5987;53.140;8.904;2023-09-19T09:25:11;100760.88;;;17.25;100.00
11856;BME280;5987;53.140;8.904;2023-09-19T09:28:20;100758.31;;;17.23;100.00
11856;BME280;5987;53.140;8.904;2023-09-19T09:31:25;100763.94;;;17.59;100.00
11856;BME280;5987;53.140;8.904;2023-09-19T09:34:33;100763.09;;;17.58;100.00
11856;BME280;5987;53.140;8.904;2023-09-19T09:37:37;100770.84;;;17.61;100.00
11856;BME280;5987;53.140;8.904;2023-09-19T09:40:49;100766.44;;;17.47;100.00
11856;BME280;5987;53.140;8.904;2023-09-19T09:44:13;100772.13;;;17.81;100.00
11856;BME280;5987;53.140;8.904;2023-09-19T09:47:47;100785.25;;;17.97;100.00
11856;BME280;5987;53.140;8.904;2023-09-19T09:50:57;100782.47;;;17.86;100.00
11856;BME280;5987;53.140;8.904;2023-09-19T09:54:13;100780.91;;;17.96;100.00
11856;BME280;5987;53.140;8.904;2023-09-19T09:57:17;100786.53;;;18.05;100.00
11856;BME280;5987;53.140;8.904;2023-09-19T10:00:25;100778.84;;;18.00;100.00
11856;BME280;5987;53.140;8.904;2023-09-19T10:03:38;100794.72;;;18.14;100.00
11856;BME280;5987;53.140;8.904;2023-09-19T10:06:44;100778.59;;;17.90;100.00
11856;BME280;5987;53.140;8.904;2023-09-19T10:09:51;100778.59;;;17.90;100.00
11856;BME280;5987;53.140;8.904;2023-09-19T10:12:59;100784.19;;;18.13;100.00
11856;BME280;5987;53.140;8.904;2023-09-19T10:16:08;100769.81;;;17.90;100.00
11856;BME280;5987;53.140;8.904;2023-09-19T10:19:21;100780.13;;;17.28;100.00
11856;BME280;5987;53.140;8.904;2023-09-19T10:22:29;100776.34;;;17.18;100.00
11856;BME280;5987;53.140;8.904;2023-09-19T10:25:38;100781.91;;;17.01;100.00
11856;BME280;5987;53.140;8.904;2023-09-19T10:28:42;100783.25;;;16.93;100.00
11856;BME280;5987;53.140;8.904;2023-09-19T10:31:48;100788.72;;;17.05;100.00
11856;BME280;5987;53.140;8.904;2023-09-19T10:34:55;100788.66;;;17.19;100.00
11856;BME280;5987;53.140;8.904;2023-09-19T10:38:01;100783.81;;;17.26;100.00
11856;BME280;5987;53.140;8.904;2023-09-19T10:41:07;100782.81;;;17.54;100.00
11856;BME280;5987;53.140;8.904;2023-09-19T10:44:14;100791.19;;;17.48;100.00
11856;BME280;5987;53.140;8.904;2023-09-19T10:47:20;100794.84;;;17.32;100.00
11856;BME280;5987;53.140;8.904;2023-09-19T10:50:31;100783.22;;;17.48;100.00
11856;BME280;5987;53.140;8.904;2023-09-19T10:53:46;100775.44;;;17.85;100.00
11856;BME280;5987;53.140;8.904;2023-09-19T10:56:51;100774.06;;;18.18;100.00
11856;BME280;5987;53.140;8.904;2023-09-19T11:00:04;100773.34;;;18.29;100.00
11856;BME280;5987;53.140;8.904;2023-09-19T11:03:24;100779.50;;;17.91;100.00
11856;BME280;5987;53.140;8.904;2023-09-19T11:06:33;100777.69;;;18.17;100.00
11856;BME280;5987;53.140;8.904;2023-09-19T11:09:49;100785.38;;;18.09;100.00
11856;BME280;5987;53.140;8.904;2023-09-19T11:12:55;100768.09;;;17.89;100.00
11856;BME280;5987;53.140;8.904;2023-09-19T11:16:04;100774.81;;;17.94;100.00
11856;BME280;5987;53.140;8.904;2023-09-19T11:19:08;100771.31;;;17.94;100.00
11856;BME280;5987;53.140;8.904;2023-09-19T11:22:15;100765.59;;;18.26;100.00
11856;BME280;5987;53.140;8.904;2023-09-19T11:25:41;100767.41;;;17.99;100.00
11856;BME280;5987;53.140;8.904;2023-09-19T11:29:24;100772.50;;;18.03;100.00
11856;BME280;5987;53.140;8.904;2023-09-19T11:33:17;100762.84;;;18.14;100.00
11856;BME280;5987;53.140;8.904;2023-09-19T11:36:35;100758.91;;;18.20;100.00
11856;BME280;5987;53.140;8.904;2023-09-19T11:40:09;100769.06;;;18.39;100.00
11856;BME280;5987;53.140;8.904;2023-09-19T11:43:31;100768.75;;;18.18;100.00
11856;BME280;5987;53.140;8.904;2023-09-19T11:46:53;100752.72;;;18.20;100.00
11856;BME280;5987;53.140;8.904;2023-09-19T11:49:57;100755.00;;;18.50;100.00
11856;BME280;5987;53.140;8.904;2023-09-19T11:53:01;100763.00;;;18.50;100.00
11856;BME280;5987;53.140;8.904;2023-09-19T11:56:10;100758.41;;;18.52;100.00
11856;BME280;5987;53.140;8.904;2023-09-19T11:59:20;100751.19;;;18.54;100.00
11856;BME280;5987;53.140;8.904;2023-09-19T12:02:39;100767.53;;;18.48;100.00
11856;BME280;5987;53.140;8.904;2023-09-19T12:05:45;100773.66;;;18.24;100.00
11856;BME280;5987;53.140;8.904;2023-09-19T12:08:49;100772.13;;;18.46;100.00
11856;BME280;5987;53.140;8.904;2023-09-19T12:11:57;100765.56;;;18.39;100.00
11856;BME280;5987;53.140;8.904;2023-09-19T12:15:01;100755.66;;;18.41;100.00
11856;BME280;5987;53.140;8.904;2023-09-19T12:18:06;100768.13;;;18.27;100.00
11856;BME280;5987;53.140;8.904;2023-09-19T12:21:28;100761.88;;;18.28;100.00
11856;BME280;5987;53.140;8.904;2023-09-19T12:24:34;100737.13;;;18.65;100.00
11856;BME280;5987;53.140;8.904;2023-09-19T12:27:47;100741.84;;;18.73;100.00
11856;BME280;5987;53.140;8.904;2023-09-19T12:30:53;100748.88;;;18.74;100.00
11856;BME280;5987;53.140;8.904;2023-09-19T12:33:58;100743.72;;;18.59;100.00
11856;BME280;5987;53.140;8.904;2023-09-19T12:37:09;100744.88;;;18.68;100.00
11856;BME280;5987;53.140;8.904;2023-09-19T12:40:18;100740.16;;;18.72;100.00
11856;BME280;5987;53.140;8.904;2023-09-19T12:43:30;100728.91;;;18.68;100.00
11856;BME280;5987;53.140;8.904;2023-09-19T12:46:37;100725.97;;;18.84;100.00
11856;BME280;5987;53.140;8.904;2023-09-19T12:50:08;100717.28;;;18.69;100.00
11856;BME280;5987;53.140;8.904;2023-09-19T12:53:26;100737.91;;;18.78;100.00
11856;BME280;5987;53.140;8.904;2023-09-19T12:56:40;100707.03;;;19.13;100.00
11856;BME280;5987;53.140;8.904;2023-09-19T12:59:52;100724.78;;;19.12;100.00
11856;BME280;5987;53.140;8.904;2023-09-19T13:03:14;100695.19;;;19.17;100.00
11856;BME280;5987;53.140;8.904;2023-09-19T13:06:35;100692.78;;;19.25;100.00
11856;BME280;5987;53.140;8.904;2023-09-19T13:10:04;100694.00;;;18.97;100.00
11856;BME280;5987;53.140;8.904;2023-09-19T13:13:23;100678.06;;;19.32;100.00
11856;BME280;5987;53.140;8.904;2023-09-19T13:16:32;100675.22;;;18.87;100.00
11856;BME280;5987;53.140;8.904;2023-09-19T13:19:38;100680.19;;;19.16;100.00
11856;BME280;5987;53.140;8.904;2023-09-19T13:22:44;100681.06;;;18.92;100.00
11856;BME280;5987;53.140;8.904;2023-09-19T13:25:52;100675.25;;;18.74;100.00
11856;BME280;5987;53.140;8.904;2023-09-19T13:28:57;100682.97;;;18.90;100.00
11856;BME280;5987;53.140;8.904;2023-09-19T13:32:02;100678.34;;;19.16;100.00
11856;BME280;5987;53.140;8.904;2023-09-19T13:35:07;100682.69;;;19.53;100.00
11856;BME280;5987;53.140;8.904;2023-09-19T13:38:12;100666.88;;;19.16;100.00
11856;BME280;5987;53.140;8.904;2023-09-19T13:41:16;100674.88;;;19.27;100.00
11856;BME280;5987;53.140;8.904;2023-09-19T13:44:19;100669.84;;;19.47;100.00
11856;BME280;5987;53.140;8.904;2023-09-19T13:47:25;100678.09;;;19.55;100.00
11856;BME280;5987;53.140;8.904;2023-09-19T13:50:29;100674.16;;;19.36;100.00
11856;BME280;5987;53.140;8.904;2023-09-19T13:53:33;100651.06;;;19.37;100.00
11856;BME280;5987;53.140;8.904;2023-09-19T13:56:37;100659.38;;;19.21;100.00
11856;BME280;5987;53.140;8.904;2023-09-19T13:59:41;100657.00;;;19.52;100.00
11856;BME280;5987;53.140;8.904;2023-09-19T14:02:47;100660.50;;;19.30;100.00
11856;BME280;5987;53.140;8.904;2023-09-19T14:05:51;100659.31;;;19.34;100.00
11856;BME280;5987;53.140;8.904;2023-09-19T14:08:55;100650.00;;;19.51;100.00
11856;BME280;5987;53.140;8.904;2023-09-19T14:11:59;100671.31;;;19.51;100.00
11856;BME280;5987;53.140;8.904;2023-09-19T14:15:03;100670.34;;;19.63;100.00
11856;BME280;5987;53.140;8.904;2023-09-19T14:18:09;100664.84;;;19.42;100.00
11856;BME280;5987;53.140;8.904;2023-09-19T14:21:13;100667.44;;;19.55;100.00
11856;BME280;5987;53.140;8.904;2023-09-19T14:24:17;100663.56;;;19.48;100.00
11856;BME280;5987;53.140;8.904;2023-09-19T14:27:21;100652.28;;;19.33;100.00
11856;BME280;5987;53.140;8.904;2023-09-19T14:30:25;100642.06;;;19.27;100.00
11856;BME280;5987;53.140;8.904;2023-09-19T14:33:31;100647.41;;;19.27;100.00
11856;BME280;5987;53.140;8.904;2023-09-19T14:36:36;100653.00;;;18.99;100.00
11856;BME280;5987;53.140;8.904;2023-09-19T14:39:44;100664.78;;;19.08;100.00
11856;BME280;5987;53.140;8.904;2023-09-19T14:42:48;100659.53;;;18.95;100.00
11856;BME280;5987;53.140;8.904;2023-09-19T14:45:54;100657.00;;;18.94;100.00
11856;BME280;5987;53.140;8.904;2023-09-19T14:49:00;100668.03;;;19.00;100.00
11856;BME280;5987;53.140;8.904;2023-09-19T14:52:09;100646.41;;;19.16;100.00
11856;BME280;5987;53.140;8.904;2023-09-19T14:55:14;100657.09;;;19.28;100.00
11856;BME280;5987;53.140;8.904;2023-09-19T14:58:18;100651.59;;;19.07;100.00
11856;BME280;5987;53.140;8.904;2023-09-19T15:01:23;100636.16;;;19.23;100.00
11856;BME280;5987;53.140;8.904;2023-09-19T15:04:29;100647.97;;;19.08;100.00
11856;BME280;5987;53.140;8.904;2023-09-19T15:07:33;100648.09;;;18.82;100.00
11856;BME280;5987;53.140;8.904;2023-09-19T15:10:38;100648.59;;;18.87;100.00
11856;BME280;5987;53.140;8.904;2023-09-19T15:13:43;100643.22;;;18.76;100.00
11856;BME280;5987;53.140;8.904;2023-09-19T15:16:47;100631.50;;;18.78;100.00
11856;BME280;5987;53.140;8.904;2023-09-19T15:19:53;100625.09;;;18.81;100.00
11856;BME280;5987;53.140;8.904;2023-09-19T15:22:58;100616.38;;;18.79;100.00
11856;BME280;5987;53.140;8.904;2023-09-19T15:26:02;100623.28;;;18.81;100.00
11856;BME280;5987;53.140;8.904;2023-09-19T15:29:06;100634.28;;;18.77;100.00
11856;BME280;5987;53.140;8.904;2023-09-19T15:32:11;100634.00;;;18.68;100.00
11856;BME280;5987;53.140;8.904;2023-09-19T15:35:17;100615.22;;;18.59;100.00
11856;BME280;5987;53.140;8.904;2023-09-19T15:38:20;100630.72;;;18.65;100.00
11856;BME280;5987;53.140;8.904;2023-09-19T15:41:24;100625.59;;;18.75;100.00
11856;BME280;5987;53.140;8.904;2023-09-19T15:44:28;100630.16;;;18.73;100.00
11856;BME280;5987;53.140;8.904;2023-09-19T15:47:33;100615.63;;;18.65;100.00
11856;BME280;5987;53.140;8.904;2023-09-19T15:50:38;100601.38;;;18.66;100.00
11856;BME280;5987;53.140;8.904;2023-09-19T15:53:46;100614.16;;;18.61;100.00
11856;BME280;5987;53.140;8.904;2023-09-19T15:56:50;100611.72;;;18.58;100.00
11856;BME280;5987;53.140;8.904;2023-09-19T15:59:54;100613.91;;;18.64;100.00
11856;BME280;5987;53.140;8.904;2023-09-19T16:03:00;100621.72;;;18.55;100.00
11856;BME280;5987;53.140;8.904;2023-09-19T16:06:10;100629.09;;;18.51;100.00
11856;BME280;5987;53.140;8.904;2023-09-19T16:09:14;100619.28;;;18.51;100.00
11856;BME280;5987;53.140;8.904;2023-09-19T16:12:18;100621.44;;;18.46;100.00
11856;BME280;5987;53.140;8.904;2023-09-19T16:15:22;100614.81;;;18.52;100.00
11856;BME280;5987;53.140;8.904;2023-09-19T16:18:28;100614.63;;;18.55;100.00